Oviedo, Spain
Current Conditions -  °F | °C
As of 8:00 AM on Wednesday 22 Oct 2014 (Local Time) from LEAS Reporting Station
Scattered Clouds Scattered Clouds  
Wind Chill: 59°   Ceiling: Unl
Heat Index: 59°   Visibility: 4mi
Dew Point: 55°   Wind: 5mph
Humidity: 88%   Direction: 100°E
Pressure: 30.45"   Gusts: NA
Location:  43.36°N, 5.84°W
Report Text: LEAS 220600Z 10004KT 070V150 6000 SCT022 SCT030 15/13 Q1031 NOSIG
Loading
Personal Weather Stations






























Interactive Weather Map
Tropical Storm Tracking
New forecast layout! Learn more

10-Day Weather Forecast

Advertisements
Track Severe Weather on mobile